首页
METAR-TAF:

METAR-TAF

机场 :

仙台機場

仙台, 日本

纬度: 38-08N, 经度: 140-55E, 海拔: 1米

当前天气观测

该预报发布于1小时和3分钟前的23:00 UTC
风速5节,风向,在西北北转东北之间变化
温度 2°C
湿度 87%
气压 1021 hPa
能见度10公里或以上
少量云层高于2000英尺
多云层高于4000英尺
多云层高于5000英尺
小阵雨, 雪

METAR: RJSS 122300Z 36005KT 310V020 9999 -SHRASN FEW020 BKN040 BKN050 02/00 Q1021

时间: 09:03 (00:03 UTC)

预报

该预报发布于57分钟前的23:06 UTC
预报有效从13日的 00点(UTC)到 14日的 06点(UTC)
风速4节,风向西转西北
能见度10公里或以上
少量云层高于2000英尺
多云层高于4000英尺
成为
从 13日的 15点(UTC)到 13日的 18点(UTC)
风速10节,风向西转西南
成为
从 13日的 21点(UTC)到 14日的 00点(UTC)
风速18节,风向西转西北
短暂存在
从 14日的 00点(UTC)到 14日的 06点(UTC)
风速20节,风向西转西北,有时为30节阵风

TAF: RJSS 122306Z 1300/1406 30004KT 9999 FEW020 BKN040 BECMG 1315/1318 24010KT BECMG 1321/1400 30018KT TEMPO 1400/1406 30020G30KT

超过4000个机场的气象观测和天气预报(METAR&TAF报告)。

可查询的气象台以黄色和红色小点在地图上表示。

将鼠标移到小点上方,可查看气象台名称。

然后点击查看天气观测和预报。

如需切换地图:点击带黑十字的绿色按钮放大地图;点击带横线的绿色按钮缩小地图;或者点击绿色箭头查看邻近地区的地图。


METAR-TAF: